ARCK1: Arkansas Riv, ARk City, KS

Data processed at Wed May 22 2019 23:50


All information presented herein is the property of the government of the United States of America and may be revised or deleted at any time without prior notice.
Dissemination of this information without the expressed written consent of the Public Affairs Office, Tulsa District U.S. Army Corps of Engineers is strictly prohibited.
These data are gathered electronically and, as presented, have not undergone any form of quality control. These data are not guaranteed to be valid or correct.
Go to home page.
Go to station list.
Go to home page.

Upstream stations:

Downstream station:
Previous Day
Next Day
Current Day
    
SHEF ID:       ARCK1     ARKANSAS R AT ARKANSAS CITY, KS
STATION TYPE:  
Regulating: Stage =    11.00, Flow =    16307

               PRECIP     STAGE  RIV-FLOW  BAT-LOAD
                   in        ft       cfs      volt
              Ccp-Rev   Ccp-Rev   Ccp-Rev   Ccp-Rev
(US/Central)
05/22 00:00      0.00     18.41     51798     12.17
05/22 01:00      0.00     18.37     51605     11.93
05/22 02:00      0.00     18.37     51605     12.17
05/22 03:00      0.00     18.35     51509     11.93
05/22 04:00      0.00     18.43     51894     12.01
05/22 05:00      0.00     18.44     51943     11.70
05/22 06:00      0.00     18.43     51894     11.77
05/22 07:00      0.00     18.48     52136     12.09
05/22 08:00      0.00     18.52     52329     12.01
05/22 09:00      0.00     18.52     52329     12.65
05/22 10:00      0.00     18.58     52620     13.05
05/22 11:00      0.00     18.66     53010     13.21
05/22 12:00      0.00     18.65     52961     13.53
05/22 13:00      0.00     18.71     53254     12.89
05/22 14:00      0.00     18.76     53498     12.65
05/22 15:00      0.00     18.86     53989     12.65
05/22 16:00      0.00     18.88     54087     12.65
05/22 17:00      0.00     18.95     54433     12.73
05/22 18:00      0.00     19.00     54680     12.65
05/22 19:00      0.00     19.03     54829     12.49
05/22 20:00      0.00     19.10     55176     12.41
05/22 21:00      0.00     19.18     55575     12.49
05/22 22:00      0.00     19.21     55724     12.41
05/22 23:00      0.17     19.30     56175     12.41